Time;durP1;ratioP1;P1;durP2;ratioP2;P2;SDS_P1;SDS_P2;PMS_P1;PMS_P2;Temp;Humidity;BMP_temperature;BMP_pressure;BME280_temperature;BME280_humidity;BME280_pressure;Samples;Min_cycle;Max_cycle;Signal;HPM_P1;HPM_P2
2022/08/12 00:42:53;;;;;;;8.90;4.85;;;;;;;;;;4973500;28;20105;-63
2022/08/12 00:45:21;;;;;;;7.68;2.97;;;;;;;;;;4973484;28;20409;-63
2022/08/12 00:47:50;;;;;;;6.10;2.90;;;;;;;;;;4973652;28;20493;-63
2022/08/12 00:50:18;;;;;;;6.13;2.90;;;;;;;;;;4973552;28;20501;-63
2022/08/12 00:52:50;;;;;;;7.45;2.85;;;;;;;;;;4973442;28;20042;-63
2022/08/12 00:55:18;;;;;;;3.53;2.90;;;;;;;;;;4973513;28;20090;-63
2022/08/12 00:57:50;;;;;;;6.10;3.05;;;;;;;;;;4973447;28;20049;-63
2022/08/12 01:00:20;;;;;;;9.15;2.78;;;;;;;;;;4973467;28;20066;-63
2022/08/12 01:02:50;;;;;;;4.60;2.63;;;;;;;;;;4973533;28;20404;-63
2022/08/12 01:13:46;;;;;;;4.97;2.67;;;;;;;;;;4973338;28;20097;-63
2022/08/12 01:16:15;;;;;;;6.05;3.10;;;;;;;;;;4973334;28;20047;-63
2022/08/12 01:18:44;;;;;;;5.15;2.85;;;;;;;;;;4973261;28;20039;-64
2022/08/12 01:21:15;;;;;;;4.53;2.75;;;;;;;;;;4973240;28;20109;-63
2022/08/12 01:24:01;;;;;;;8.43;3.00;;;;;;;;;;4973363;28;20050;-63
2022/08/12 01:26:50;;;;;;;7.97;2.90;;;;;;;;;;4976224;28;20117;-63
2022/08/12 01:29:21;;;;;;;5.55;3.17;;;;;;;;;;4959461;28;20419;-63
2022/08/12 01:31:49;;;;;;;5.40;3.45;;;;;;;;;;4959374;28;20098;-63
2022/08/12 01:34:22;;;;;;;7.00;3.45;;;;;;;;;;4976758;28;20039;-63
2022/08/12 01:37:04;;;;;;;5.85;2.75;;;;;;;;;;4977056;28;20055;-64
2022/08/12 01:39:32;;;;;;;5.05;2.90;;;;;;;;;;4976761;28;20499;-63
2022/08/12 01:42:05;;;;;;;5.20;2.67;;;;;;;;;;4976517;28;20428;-63
2022/08/12 01:44:34;;;;;;;7.70;3.10;;;;;;;;;;4976373;28;20078;-63
2022/08/12 01:47:07;;;;;;;3.80;2.85;;;;;;;;;;4976447;28;20047;-63
2022/08/12 01:49:35;;;;;;;8.38;2.90;;;;;;;;;;4976380;28;20070;-63
2022/08/12 01:52:05;;;;;;;10.57;3.92;;;;;;;;;;4976611;28;20047;-63
2022/08/12 01:54:49;;;;;;;6.20;3.20;;;;;;;;;;4961531;28;20043;-63
2022/08/12 01:57:23;;;;;;;7.88;3.40;;;;;;;;;;4976401;28;20046;-63
2022/08/12 02:00:12;;;;;;;8.35;3.42;;;;;;;;;;4976202;28;20440;-63
2022/08/12 02:02:40;;;;;;;8.50;3.47;;;;;;;;;;4976100;28;20047;-63
2022/08/12 02:11:22;;;;;;;7.13;3.20;;;;;;;;;;4976078;28;20035;-63
2022/08/12 02:14:10;;;;;;;6.85;3.00;;;;;;;;;;4976108;28;20660;-63
2022/08/12 02:16:57;;;;;;;5.85;3.05;;;;;;;;;;4975984;28;20042;-64
2022/08/12 02:19:40;;;;;;;7.20;2.88;;;;;;;;;;4958821;28;20043;-63
2022/08/12 02:22:11;;;;;;;8.15;3.40;;;;;;;;;;4975809;28;20066;-63
2022/08/12 02:24:40;;;;;;;9.32;3.25;;;;;;;;;;4975797;28;20042;-63
2022/08/12 02:27:09;;;;;;;8.55;3.35;;;;;;;;;;4958751;28;20046;-63
2022/08/12 02:29:37;;;;;;;5.88;3.38;;;;;;;;;;4975674;28;20503;-64
2022/08/12 02:32:05;;;;;;;7.85;3.42;;;;;;;;;;4975705;28;20102;-63
2022/08/12 02:34:33;;;;;;;6.60;3.53;;;;;;;;;;4975715;28;20050;-64
2022/08/12 02:37:01;;;;;;;7.97;3.47;;;;;;;;;;4975408;28;20039;-63
2022/08/12 02:39:32;;;;;;;6.93;3.10;;;;;;;;;;4975647;28;20053;-63
2022/08/12 02:42:02;;;;;;;5.00;2.92;;;;;;;;;;4975873;28;20078;-63
2022/08/12 02:44:30;;;;;;;8.30;3.00;;;;;;;;;;4975486;28;20488;-64
2022/08/12 02:47:00;;;;;;;7.95;3.30;;;;;;;;;;4975310;28;20086;-63
2022/08/12 02:49:34;;;;;;;6.32;3.38;;;;;;;;;;4975414;28;20062;-63
2022/08/12 02:52:02;;;;;;;7.05;3.17;;;;;;;;;;4975311;28;20086;-63
2022/08/12 02:54:29;;;;;;;7.78;3.17;;;;;;;;;;4975371;28;20043;-63
2022/08/12 02:56:57;;;;;;;8.73;3.00;;;;;;;;;;4975247;28;20086;-63
2022/08/12 02:59:27;;;;;;;9.25;3.47;;;;;;;;;;4975164;28;20053;-63
2022/08/12 03:01:56;;;;;;;9.20;3.85;;;;;;;;;;4975191;28;20042;-63
2022/08/12 03:04:28;;;;;;;9.82;3.80;;;;;;;;;;4974869;28;20039;-63
2022/08/12 03:07:08;;;;;;;7.05;3.65;;;;;;;;;;4957737;28;20047;-63
2022/08/12 03:09:39;;;;;;;7.03;4.20;;;;;;;;;;4975082;28;20042;-63
2022/08/12 03:12:28;;;;;;;13.38;5.85;;;;;;;;;;4974814;28;20042;-63
2022/08/12 03:15:03;;;;;;;11.85;5.60;;;;;;;;;;4974968;28;20054;-63
2022/08/12 03:17:34;;;;;;;13.75;5.65;;;;;;;;;;4974885;28;20434;-63
2022/08/12 03:20:02;;;;;;;10.15;5.32;;;;;;;;;;4974863;28;20090;-63
2022/08/12 03:22:41;;;;;;;12.30;5.57;;;;;;;;;;4974780;28;20153;-64
2022/08/12 03:25:14;;;;;;;8.35;5.25;;;;;;;;;;4974772;28;20049;-63
2022/08/12 03:27:50;;;;;;;9.18;5.57;;;;;;;;;;4974686;28;20049;-64
2022/08/12 03:30:19;;;;;;;8.35;5.25;;;;;;;;;;4974651;28;20039;-64
2022/08/12 03:32:47;;;;;;;26.63;5.93;;;;;;;;;;4974489;28;20051;-64
2022/08/12 03:35:25;;;;;;;11.23;5.10;;;;;;;;;;4974638;28;20543;-63
2022/08/12 03:38:10;;;;;;;9.48;5.38;;;;;;;;;;4974703;28;20193;-64
2022/08/12 04:00:28;;;;;;;12.77;4.75;;;;;;;;;;4954931;29;20058;-63
2022/08/12 04:03:04;;;;;;;14.35;7.38;;;;;;;;;;4954841;28;20043;-63
2022/08/12 04:05:37;;;;;;;18.17;10.32;;;;;;;;;;4954691;29;20047;-63
2022/08/12 04:08:22;;;;;;;;;;;;;;;;;;4955124;28;20046;-64
2022/08/12 04:13:36;;;;;;;12.05;5.30;;;;;;;;;;4954483;28;20047;-63
2022/08/12 04:16:06;;;;;;;9.45;4.78;;;;;;;;;;4954594;29;20047;-63
2022/08/12 04:18:34;;;;;;;13.63;6.60;;;;;;;;;;4954640;29;20043;-63
2022/08/12 04:21:02;;;;;;;11.27;7.90;;;;;;;;;;4954478;28;20039;-63
2022/08/12 04:23:30;;;;;;;13.63;10.23;;;;;;;;;;4954819;29;20043;-64
2022/08/12 04:25:58;;;;;;;25.48;19.77;;;;;;;;;;4954034;29;20049;-64
2022/08/12 04:28:26;;;;;;;11.82;8.35;;;;;;;;;;4954142;29;20402;-64
2022/08/12 04:30:56;;;;;;;12.63;7.95;;;;;;;;;;4953207;29;20070;-64
2022/08/12 04:33:25;;;;;;;9.65;4.43;;;;;;;;;;4936964;29;20051;-63
2022/08/12 04:35:53;;;;;;;9.38;4.65;;;;;;;;;;4954454;28;20039;-64
2022/08/12 04:38:21;;;;;;;7.35;4.32;;;;;;;;;;4954175;28;20048;-64
2022/08/12 04:40:50;;;;;;;7.10;3.80;;;;;;;;;;4953814;29;20070;-64
2022/08/12 04:43:18;;;;;;;8.70;4.93;;;;;;;;;;4952568;28;20054;-64
2022/08/12 04:46:06;;;;;;;8.32;3.95;;;;;;;;;;4938659;28;20074;-64
2022/08/12 04:48:33;;;;;;;10.00;6.60;;;;;;;;;;4952828;29;20050;-64
2022/08/12 04:51:01;;;;;;;8.95;6.20;;;;;;;;;;4935978;28;20051;-64
2022/08/12 04:53:30;;;;;;;13.10;6.53;;;;;;;;;;4953273;28;20043;-64
2022/08/12 04:55:57;;;;;;;9.07;5.70;;;;;;;;;;4953711;28;20043;-64
2022/08/12 04:58:25;;;;;;;8.00;5.57;;;;;;;;;;4954317;29;20051;-64
2022/08/12 05:00:56;;;;;;;8.15;4.07;;;;;;;;;;4955552;28;20066;-64
2022/08/12 05:03:25;;;;;;;11.55;7.43;;;;;;;;;;4958053;29;20055;-64
2022/08/12 05:05:55;;;;;;;9.05;4.68;;;;;;;;;;4958012;29;20045;-64
2022/08/12 05:08:24;;;;;;;7.97;5.32;;;;;;;;;;4958053;28;20047;-64
2022/08/12 05:10:52;;;;;;;8.40;4.30;;;;;;;;;;4957747;28;20042;-64
2022/08/12 05:13:20;;;;;;;8.98;4.78;;;;;;;;;;4957679;28;20094;-64
2022/08/12 05:15:48;;;;;;;13.10;5.53;;;;;;;;;;4957809;29;20167;-64
2022/08/12 05:18:36;;;;;;;11.25;4.93;;;;;;;;;;4961993;28;20042;-64
2022/08/12 05:21:06;;;;;;;8.90;5.10;;;;;;;;;;4974493;28;20550;-64
2022/08/12 05:23:36;;;;;;;12.13;5.78;;;;;;;;;;4976864;28;20284;-64
2022/08/12 05:26:04;;;;;;;7.93;4.85;;;;;;;;;;4976895;28;20039;-64
2022/08/12 05:28:32;;;;;;;10.13;5.13;;;;;;;;;;4976885;28;20046;-65
2022/08/12 05:31:00;;;;;;;15.68;9.20;;;;;;;;;;4959471;28;20136;-64
2022/08/12 05:33:36;;;;;;;26.33;14.10;;;;;;;;;;4976689;28;20512;-64
2022/08/12 05:36:08;;;;;;;15.68;6.78;;;;;;;;;;4976809;28;20419;-64
2022/08/12 05:41:23;;;;;;;33.47;22.85;;;;;;;;;;4976789;28;20450;-64
2022/08/12 05:43:52;;;;;;;11.15;4.55;;;;;;;;;;4976601;28;20397;-64
2022/08/12 05:46:21;;;;;;;11.90;5.03;;;;;;;;;;4959358;28;20503;-64
2022/08/12 05:48:51;;;;;;;14.68;5.75;;;;;;;;;;4959370;28;20050;-64
2022/08/12 05:51:18;;;;;;;12.63;5.70;;;;;;;;;;4976036;28;20035;-64
2022/08/12 05:53:47;;;;;;;16.60;7.38;;;;;;;;;;4971889;28;20046;-64
2022/08/12 05:56:18;;;;;;;14.18;4.28;;;;;;;;;;4975023;28;20047;-64
2022/08/12 05:58:46;;;;;;;26.65;15.98;;;;;;;;;;4974798;28;20572;-64
2022/08/12 06:01:14;;;;;;;13.07;6.68;;;;;;;;;;4957387;28;20042;-64
2022/08/12 06:04:01;;;;;;;5.40;2.75;;;;;;;;;;4959586;28;20149;-64
2022/08/12 06:06:34;;;;;;;25.27;16.38;;;;;;;;;;4975301;28;20493;-65
2022/08/12 06:09:08;;;;;;;7.40;3.50;;;;;;;;;;4976122;28;20043;-65
2022/08/12 06:11:36;;;;;;;5.70;3.20;;;;;;;;;;4975529;28;20121;-64
2022/08/12 06:14:04;;;;;;;3.33;2.80;;;;;;;;;;4975665;28;20370;-64
2022/08/12 06:16:38;;;;;;;12.13;7.38;;;;;;;;;;4975586;28;20046;-64
2022/08/12 06:19:07;;;;;;;6.32;3.05;;;;;;;;;;4975682;28;20042;-64
2022/08/12 06:21:36;;;;;;;11.93;3.17;;;;;;;;;;4975659;28;20084;-65
2022/08/12 06:24:06;;;;;;;7.32;3.10;;;;;;;;;;4975584;28;20400;-65
2022/08/12 06:26:34;;;;;;;20.27;12.23;;;;;;;;;;4975462;28;20039;-65
2022/08/12 06:29:02;;;;;;;9.70;3.65;;;;;;;;;;4975594;28;20043;-65
2022/08/12 06:31:29;;;;;;;9.15;5.75;;;;;;;;;;4974770;28;20065;-65
2022/08/12 06:33:57;;;;;;;7.57;3.90;;;;;;;;;;4990143;28;20059;-65
2022/08/12 06:36:45;;;;;;;5.63;2.65;;;;;;;;;;4975545;28;20077;-65
2022/08/12 06:39:13;;;;;;;15.02;9.32;;;;;;;;;;4975106;28;20043;-65
2022/08/12 06:44:49;;;;;;;6.65;3.42;;;;;;;;;;4974829;28;20045;-64
2022/08/12 06:47:18;;;;;;;9.25;5.43;;;;;;;;;;4975337;28;20047;-64
2022/08/12 06:49:48;;;;;;;7.25;3.63;;;;;;;;;;4975366;28;20126;-64
2022/08/12 06:52:16;;;;;;;5.32;2.88;;;;;;;;;;4975282;28;20046;-64
2022/08/12 06:54:44;;;;;;;5.03;2.90;;;;;;;;;;4958456;28;20102;-64
2022/08/12 06:57:12;;;;;;;4.65;2.80;;;;;;;;;;4955278;29;20043;-64
2022/08/12 06:59:59;;;;;;;6.22;2.72;;;;;;;;;;4955680;28;20047;-64
2022/08/12 07:02:27;;;;;;;5.10;2.65;;;;;;;;;;4955696;29;20046;-65
2022/08/12 07:04:54;;;;;;;5.38;3.60;;;;;;;;;;4954522;28;20486;-64
2022/08/12 07:07:21;;;;;;;6.85;3.42;;;;;;;;;;4955716;29;20051;-64
2022/08/12 07:09:50;;;;;;;4.00;2.80;;;;;;;;;;4955893;28;20043;-64
2022/08/12 07:12:34;;;;;;;4.43;2.50;;;;;;;;;;4955207;28;20130;-64
2022/08/12 07:15:02;;;;;;;5.55;2.70;;;;;;;;;;4974060;28;20251;-64
2022/08/12 07:17:35;;;;;;;4.78;3.33;;;;;;;;;;4973084;28;20043;-64
2022/08/12 07:20:08;;;;;;;4.70;3.63;;;;;;;;;;4974037;28;20042;-64
2022/08/12 07:22:56;;;;;;;3.75;3.13;;;;;;;;;;4973301;28;20390;-64
2022/08/12 07:25:30;;;;;;;5.40;3.17;;;;;;;;;;4974044;28;20054;-64
2022/08/12 07:28:07;;;;;;;4.68;3.22;;;;;;;;;;4974162;28;20493;-64
2022/08/12 07:30:43;;;;;;;8.68;3.10;;;;;;;;;;4974374;28;20386;-64
2022/08/12 07:33:12;;;;;;;10.52;4.40;;;;;;;;;;4974356;28;20420;-64
2022/08/12 07:35:44;;;;;;;5.85;2.90;;;;;;;;;;4974303;28;20101;-64
2022/08/12 07:38:24;;;;;;;4.80;3.40;;;;;;;;;;4974276;28;20039;-64
2022/08/12 07:40:56;;;;;;;7.10;3.88;;;;;;;;;;4974318;28;20093;-64
2022/08/12 07:43:25;;;;;;;5.28;3.20;;;;;;;;;;4957667;28;20448;-63
2022/08/12 07:45:53;;;;;;;5.88;3.47;;;;;;;;;;4974259;28;20549;-63
2022/08/12 07:48:21;;;;;;;7.00;3.55;;;;;;;;;;4974365;28;20058;-63
2022/08/12 07:50:50;;;;;;;6.85;4.25;;;;;;;;;;4974189;28;20097;-63
2022/08/12 07:53:18;;;;;;;5.97;2.97;;;;;;;;;;4974005;28;20090;-63
2022/08/12 07:55:46;;;;;;;10.15;4.85;;;;;;;;;;4974522;28;20397;-63
2022/08/12 07:58:14;;;;;;;5.82;3.70;;;;;;;;;;4974502;28;20043;-63
2022/08/12 08:00:42;;;;;;;8.15;3.58;;;;;;;;;;4974111;28;20054;-63
2022/08/12 08:03:12;;;;;;;6.40;3.20;;;;;;;;;;4974133;28;20507;-63
2022/08/12 08:05:45;;;;;;;6.30;3.72;;;;;;;;;;4974091;28;20050;-63
2022/08/12 08:08:13;;;;;;;7.75;5.57;;;;;;;;;;4974102;28;20101;-64
2022/08/12 08:10:41;;;;;;;11.77;9.75;;;;;;;;;;4974042;28;20493;-63
2022/08/12 08:13:10;;;;;;;6.00;2.85;;;;;;;;;;4973902;28;20074;-63
2022/08/12 08:15:39;;;;;;;9.65;4.65;;;;;;;;;;4973972;28;20340;-64
2022/08/12 08:18:27;;;;;;;7.15;4.20;;;;;;;;;;4973525;28;20437;-63
2022/08/12 08:20:56;;;;;;;4.75;3.20;;;;;;;;;;4973591;28;20311;-63
2022/08/12 08:24:13;;;;;;;3.75;2.30;;;;;;;;;;4973621;28;20081;-63
2022/08/12 08:26:23;;;;;;;5.40;2.70;;;;;;;;;;4973486;28;20400;-63
2022/08/12 08:28:51;;;;;;;4.57;2.42;;;;;;;;;;4973854;28;20446;-63
2022/08/12 08:31:20;;;;;;;3.97;2.65;;;;;;;;;;4973673;28;20134;-63
2022/08/12 08:33:47;;;;;;;5.80;4.25;;;;;;;;;;4973314;28;20043;-63
2022/08/12 08:36:35;;;;;;;4.43;3.30;;;;;;;;;;4973328;28;20211;-63
2022/08/12 08:39:03;;;;;;;7.05;4.07;;;;;;;;;;4973361;28;20464;-63
2022/08/12 08:44:38;;;;;;;5.65;3.38;;;;;;;;;;4973664;28;20489;-65
2022/08/12 08:47:06;;;;;;;9.45;4.25;;;;;;;;;;4973400;28;20061;-64
2022/08/12 08:49:37;;;;;;;4.13;2.72;;;;;;;;;;4973129;28;20457;-65
2022/08/12 08:52:05;;;;;;;13.27;3.50;;;;;;;;;;4973247;28;20038;-64
2022/08/12 08:54:33;;;;;;;8.40;4.15;;;;;;;;;;4973012;28;20042;-64
2022/08/12 08:57:01;;;;;;;4.78;3.38;;;;;;;;;;4973303;28;20042;-64
2022/08/12 08:59:28;;;;;;;4.88;3.13;;;;;;;;;;4973167;28;20129;-62
2022/08/12 09:01:56;;;;;;;5.18;2.88;;;;;;;;;;4973689;28;20386;-62
2022/08/12 09:04:24;;;;;;;5.43;2.70;;;;;;;;;;4973519;28;20096;-62
2022/08/12 09:07:11;;;;;;;4.15;3.42;;;;;;;;;;4973555;28;20503;-64
2022/08/12 09:09:59;;;;;;;4.53;2.70;;;;;;;;;;4973375;28;20039;-64
2022/08/12 09:15:25;;;;;;;4.00;2.63;;;;;;;;;;4973202;28;20047;-62
2022/08/12 09:18:04;;;;;;;8.35;2.70;;;;;;;;;;4973288;28;20043;-62
2022/08/12 09:20:37;;;;;;;9.85;3.13;;;;;;;;;;4973263;28;20059;-62
2022/08/12 09:23:09;;;;;;;5.68;2.60;;;;;;;;;;4973116;28;20039;-62
2022/08/12 09:25:59;;;;;;;8.40;3.90;;;;;;;;;;4973140;28;20074;-64
2022/08/12 09:28:31;;;;;;;4.72;2.78;;;;;;;;;;4973077;28;20050;-63
2022/08/12 09:30:59;;;;;;;5.63;2.53;;;;;;;;;;4973209;28;20049;-64
2022/08/12 09:33:34;;;;;;;8.48;3.58;;;;;;;;;;4973099;28;20077;-62
2022/08/12 09:36:21;;;;;;;3.88;2.22;;;;;;;;;;4973198;28;20497;-64
2022/08/12 09:39:01;;;;;;;3.70;2.80;;;;;;;;;;4972909;28;20049;-64
2022/08/12 09:45:19;;;;;;;5.10;2.40;;;;;;;;;;4972918;28;20519;-64
2022/08/12 09:47:46;;;;;;;3.00;2.60;;;;;;;;;;4975508;28;20042;-64
2022/08/12 09:50:25;;;;;;;4.80;3.50;;;;;;;;;;4976497;28;20485;-64
2022/08/12 09:53:14;;;;;;;4.40;2.50;;;;;;;;;;4976504;28;20038;-64
2022/08/12 09:55:45;;;;;;;4.30;2.10;;;;;;;;;;4976324;28;20129;-64
2022/08/12 09:58:33;;;;;;;4.68;2.47;;;;;;;;;;4976458;28;20122;-64
2022/08/12 10:01:22;;;;;;;2.85;2.20;;;;;;;;;;4976768;28;20039;-62
2022/08/12 10:03:50;;;;;;;6.28;3.08;;;;;;;;;;4976423;28;20050;-62
2022/08/12 10:06:30;;;;;;;6.00;4.43;;;;;;;;;;4976506;28;20094;-62
2022/08/12 10:09:06;;;;;;;7.47;6.18;;;;;;;;;;4976131;28;20046;-62
2022/08/12 10:14:43;;;;;;;4.80;2.63;;;;;;;;;;4976328;28;20393;-64
2022/08/12 10:17:22;;;;;;;5.97;3.40;;;;;;;;;;4976038;28;20461;-64
2022/08/12 10:19:51;;;;;;;7.28;3.95;;;;;;;;;;4975966;28;20097;-64
2022/08/12 10:22:20;;;;;;;6.20;5.40;;;;;;;;;;4975984;28;20074;-63
2022/08/12 10:31:29;;;;;;;7.47;4.75;;;;;;;;;;4975829;28;20131;-63
2022/08/12 10:34:18;;;;;;;8.73;6.03;;;;;;;;;;4975114;28;20101;-63
2022/08/12 10:37:03;;;;;;;7.43;5.82;;;;;;;;;;4974299;28;20041;-64
2022/08/12 10:39:50;;;;;;;10.35;6.25;;;;;;;;;;4956158;29;20066;-63
2022/08/12 10:45:30;;;;;;;5.53;2.70;;;;;;;;;;4956059;28;20131;-64
2022/08/12 10:47:58;;;;;;;5.72;2.83;;;;;;;;;;4955249;29;20603;-64
2022/08/12 10:50:45;;;;;;;5.97;3.28;;;;;;;;;;4956183;28;20043;-64
2022/08/12 10:53:33;;;;;;;3.53;2.40;;;;;;;;;;4956401;28;20106;-63
2022/08/12 10:56:16;;;;;;;4.78;2.97;;;;;;;;;;4956651;29;20122;-63
2022/08/12 10:58:45;;;;;;;5.20;3.53;;;;;;;;;;4960810;28;20039;-64
2022/08/12 11:01:15;;;;;;;7.57;3.20;;;;;;;;;;4972007;28;20134;-63
2022/08/12 11:04:04;;;;;;;6.25;2.80;;;;;;;;;;4975019;28;20126;-63
2022/08/12 11:06:55;;;;;;;5.68;2.97;;;;;;;;;;4975237;28;20113;-64
2022/08/12 11:09:44;;;;;;;6.28;2.88;;;;;;;;;;4975118;28;20039;-64
2022/08/12 11:12:28;;;;;;;4.40;2.33;;;;;;;;;;4975028;28;20066;-64
2022/08/12 11:15:17;;;;;;;4.72;2.60;;;;;;;;;;4957483;28;20057;-64
2022/08/12 11:17:51;;;;;;;3.22;2.38;;;;;;;;;;4974834;28;20050;-64
2022/08/12 11:20:23;;;;;;;4.03;2.58;;;;;;;;;;4974726;28;20065;-64
2022/08/12 11:23:00;;;;;;;4.13;2.33;;;;;;;;;;4974832;28;20039;-64
2022/08/12 11:25:30;;;;;;;3.90;2.40;;;;;;;;;;4974551;28;20046;-64
2022/08/12 11:28:18;;;;;;;4.18;2.15;;;;;;;;;;4974716;28;20055;-64
2022/08/12 11:31:01;;;;;;;4.55;2.40;;;;;;;;;;4974513;28;20064;-64
2022/08/12 11:33:28;;;;;;;3.03;2.35;;;;;;;;;;4975165;28;20043;-65
2022/08/12 11:36:16;;;;;;;2.50;2.30;;;;;;;;;;4974137;28;20523;-64
2022/08/12 11:38:43;;;;;;;3.80;2.50;;;;;;;;;;4974471;28;20038;-64
2022/08/12 11:41:18;;;;;;;2.55;2.10;;;;;;;;;;4974127;28;20050;-64
2022/08/12 11:43:59;;;;;;;8.75;6.63;;;;;;;;;;4973922;28;20388;-64
2022/08/12 11:46:46;;;;;;;5.80;4.65;;;;;;;;;;4973840;28;20066;-64
2022/08/12 11:49:20;;;;;;;6.90;4.32;;;;;;;;;;4973834;28;20645;-65
2022/08/12 11:52:00;;;;;;;4.55;2.50;;;;;;;;;;4973603;28;20122;-64
2022/08/12 11:54:27;;;;;;;3.20;2.65;;;;;;;;;;4973851;28;20065;-64
2022/08/12 11:56:57;;;;;;;2.45;2.13;;;;;;;;;;4973799;28;20042;-65
2022/08/12 11:59:27;;;;;;;3.38;2.17;;;;;;;;;;4973742;28;20524;-64
2022/08/12 12:02:14;;;;;;;7.55;5.05;;;;;;;;;;4973597;28;20035;-65
2022/08/12 12:04:48;;;;;;;5.28;4.32;;;;;;;;;;4973817;28;20039;-65
2022/08/12 12:07:21;;;;;;;8.07;3.13;;;;;;;;;;4973276;28;20070;-65
2022/08/12 12:10:00;;;;;;;5.25;3.28;;;;;;;;;;4973191;28;20093;-65
2022/08/12 12:12:27;;;;;;;4.20;3.50;;;;;;;;;;4973370;28;20514;-65
2022/08/12 12:14:55;;;;;;;3.30;2.30;;;;;;;;;;4973270;28;20096;-65
2022/08/12 12:17:27;;;;;;;3.55;2.53;;;;;;;;;;4973129;28;20129;-65
2022/08/12 12:20:09;;;;;;;5.13;2.45;;;;;;;;;;4973595;28;20046;-65
2022/08/12 12:22:39;;;;;;;2.63;2.42;;;;;;;;;;4973339;28;20041;-65
2022/08/12 12:25:10;;;;;;;2.67;2.30;;;;;;;;;;4973478;28;20050;-65
2022/08/12 12:27:47;;;;;;;2.67;2.22;;;;;;;;;;4973433;28;20107;-64
2022/08/12 12:30:31;;;;;;;8.68;3.00;;;;;;;;;;4973496;28;20046;-64
2022/08/12 12:32:59;;;;;;;2.10;2.00;;;;;;;;;;4973466;28;20046;-64
2022/08/12 12:35:26;;;;;;;3.88;2.10;;;;;;;;;;4973116;28;20097;-65
2022/08/12 12:38:15;;;;;;;3.58;2.53;;;;;;;;;;4973443;28;20109;-66
2022/08/12 12:40:44;;;;;;;10.95;8.00;;;;;;;;;;4973225;28;20042;-66
2022/08/12 12:43:16;;;;;;;4.15;2.70;;;;;;;;;;4972558;28;20043;-65
2022/08/12 12:45:55;;;;;;;5.63;3.47;;;;;;;;;;4972734;28;20055;-66
2022/08/12 12:48:23;;;;;;;4.18;2.65;;;;;;;;;;4973179;28;20053;-66
2022/08/12 12:53:40;;;;;;;2.78;2.08;;;;;;;;;;4972920;28;20633;-66
2022/08/12 12:56:28;;;;;;;3.05;2.42;;;;;;;;;;4972938;28;20047;-66
2022/08/12 12:59:02;;;;;;;2.80;2.40;;;;;;;;;;4973017;28;20070;-65
2022/08/12 13:01:30;;;;;;;2.80;2.35;;;;;;;;;;4972806;28;20043;-65
2022/08/12 13:04:10;;;;;;;5.93;2.40;;;;;;;;;;4973146;28;20045;-65
2022/08/12 13:06:40;;;;;;;2.63;2.42;;;;;;;;;;4972972;28;20489;-66
2022/08/12 13:09:11;;;;;;;3.58;2.60;;;;;;;;;;4972813;28;20047;-64
2022/08/12 13:11:39;;;;;;;4.28;2.70;;;;;;;;;;4973063;28;20053;-64
2022/08/12 13:14:12;;;;;;;9.75;6.95;;;;;;;;;;4972714;28;20035;-64
2022/08/12 13:17:01;;;;;;;3.92;2.92;;;;;;;;;;4972315;28;20039;-64
2022/08/12 13:19:30;;;;;;;6.97;3.88;;;;;;;;;;4964635;28;20053;-65
2022/08/12 13:22:16;;;;;;;6.93;4.88;;;;;;;;;;4974414;28;20046;-64
2022/08/12 13:24:49;;;;;;;9.88;5.78;;;;;;;;;;4968487;28;20043;-64
2022/08/12 13:27:27;;;;;;;3.85;2.72;;;;;;;;;;4976227;28;20049;-65
2022/08/12 13:30:08;;;;;;;3.13;2.63;;;;;;;;;;4976436;28;20117;-64
2022/08/12 13:32:42;;;;;;;3.28;2.50;;;;;;;;;;4976352;28;20043;-65
2022/08/12 13:35:23;;;;;;;3.22;2.45;;;;;;;;;;4976091;28;20042;-65
2022/08/12 13:38:11;;;;;;;3.83;3.25;;;;;;;;;;4976190;28;20035;-65
2022/08/12 13:40:39;;;;;;;4.43;2.33;;;;;;;;;;4976096;28;20054;-65
2022/08/12 13:43:07;;;;;;;11.45;7.97;;;;;;;;;;4979151;28;20456;-65
2022/08/12 13:45:39;;;;;;;5.28;4.65;;;;;;;;;;4975745;28;20134;-64
2022/08/12 13:48:07;;;;;;;5.28;3.70;;;;;;;;;;4976040;28;20053;-64
2022/08/12 13:50:39;;;;;;;6.25;3.40;;;;;;;;;;4975954;28;20042;-64
2022/08/12 13:53:08;;;;;;;4.05;2.50;;;;;;;;;;4975689;28;20046;-65
2022/08/12 13:55:51;;;;;;;2.47;2.22;;;;;;;;;;4975881;28;20050;-65
2022/08/12 13:58:28;;;;;;;5.30;2.90;;;;;;;;;;4975606;28;20038;-66
2022/08/12 14:00:57;;;;;;;4.72;2.40;;;;;;;;;;4974969;28;20043;-65
2022/08/12 14:03:25;;;;;;;5.10;3.00;;;;;;;;;;4975384;28;20093;-66
2022/08/12 14:06:12;;;;;;;6.93;3.80;;;;;;;;;;4967454;28;20134;-67
2022/08/12 14:08:42;;;;;;;7.88;5.07;;;;;;;;;;4976010;28;20118;-66
2022/08/12 14:11:10;;;;;;;7.38;5.35;;;;;;;;;;4956028;28;20047;-67
2022/08/12 14:13:40;;;;;;;5.28;3.58;;;;;;;;;;4955503;29;20049;-66
2022/08/12 14:16:28;;;;;;;6.78;6.05;;;;;;;;;;4956609;29;20074;-66
2022/08/12 14:19:15;;;;;;;3.47;2.30;;;;;;;;;;4956584;29;20047;-66
2022/08/12 14:21:52;;;;;;;15.32;9.13;;;;;;;;;;4956650;29;20047;-65
2022/08/12 14:24:35;;;;;;;6.72;5.57;;;;;;;;;;4956700;28;20397;-65
2022/08/12 14:27:08;;;;;;;9.05;6.47;;;;;;;;;;4956393;28;20043;-65
2022/08/12 14:29:41;;;;;;;6.30;4.68;;;;;;;;;;4955078;28;20063;-65
2022/08/12 14:32:35;;;;;;;3.25;2.35;;;;;;;;;;4956163;28;20510;-66
2022/08/12 14:35:05;;;;;;;8.55;2.92;;;;;;;;;;4969216;28;20035;-65
2022/08/12 14:37:39;;;;;;;3.75;2.67;;;;;;;;;;4968591;28;20043;-65
2022/08/12 14:40:28;;;;;;;5.25;3.70;;;;;;;;;;4975169;28;20117;-66
2022/08/12 14:43:01;;;;;;;6.30;2.97;;;;;;;;;;4975006;28;20045;-67
2022/08/12 14:45:35;;;;;;;3.53;2.80;;;;;;;;;;4973489;28;20109;-66
2022/08/12 14:48:19;;;;;;;3.28;2.50;;;;;;;;;;4969237;28;20047;-66
2022/08/12 14:50:51;;;;;;;5.88;2.60;;;;;;;;;;4955830;28;20054;-66
2022/08/12 14:53:40;;;;;;;4.13;2.85;;;;;;;;;;4965418;28;20123;-67
2022/08/12 14:56:28;;;;;;;5.47;3.00;;;;;;;;;;4960833;28;20130;-66
2022/08/12 15:02:22;;;;;;;8.55;3.83;;;;;;;;;;4965268;28;20142;-65
2022/08/12 15:04:57;;;;;;;4.72;3.10;;;;;;;;;;4973678;28;20544;-66
2022/08/12 15:07:26;;;;;;;3.10;2.47;;;;;;;;;;4973909;28;20477;-66
2022/08/12 15:10:12;;;;;;;;;;;;;;;;;;4974678;28;20378;-65
2022/08/12 15:12:39;;;;;;;4.20;2.60;;;;;;;;;;4974362;28;19922;-66
2022/08/12 15:15:08;;;;;;;2.83;2.33;;;;;;;;;;4974120;28;20035;-65
2022/08/12 15:17:37;;;;;;;5.18;2.60;;;;;;;;;;4974649;28;20461;-66
2022/08/12 15:20:06;;;;;;;4.30;2.20;;;;;;;;;;4974130;28;20118;-66
2022/08/12 15:22:55;;;;;;;5.18;2.90;;;;;;;;;;4974153;28;20074;-66
2022/08/12 15:25:24;;;;;;;6.32;3.10;;;;;;;;;;4971653;28;20138;-67
2022/08/12 15:27:53;;;;;;;6.97;2.67;;;;;;;;;;4973909;28;20043;-66
2022/08/12 15:30:32;;;;;;;5.75;3.63;;;;;;;;;;4973966;28;20047;-65
2022/08/12 15:33:01;;;;;;;6.80;2.85;;;;;;;;;;4973812;28;20045;-65
2022/08/12 15:35:42;;;;;;;7.30;3.08;;;;;;;;;;4973930;28;20141;-66
2022/08/12 15:38:20;;;;;;;7.03;3.38;;;;;;;;;;4973801;28;20035;-66
2022/08/12 15:40:51;;;;;;;4.05;2.70;;;;;;;;;;4973178;28;20038;-66
2022/08/12 15:43:20;;;;;;;4.45;2.55;;;;;;;;;;4973196;28;20105;-66
2022/08/12 15:46:08;;;;;;;5.78;4.18;;;;;;;;;;4972488;28;20133;-67
2022/08/12 15:48:45;;;;;;;5.85;3.50;;;;;;;;;;4972844;28;20043;-66
2022/08/12 15:51:33;;;;;;;4.50;3.60;;;;;;;;;;4972888;28;20039;-66
2022/08/12 15:54:21;;;;;;;10.55;7.28;;;;;;;;;;4964440;28;20126;-66
2022/08/12 15:57:04;;;;;;;8.40;3.55;;;;;;;;;;4973209;28;20478;-65
2022/08/12 15:59:35;;;;;;;7.10;3.35;;;;;;;;;;4973693;28;20037;-65
2022/08/12 16:02:23;;;;;;;7.80;5.63;;;;;;;;;;4952909;28;20442;-66
2022/08/12 16:04:53;;;;;;;12.00;5.45;;;;;;;;;;4971978;28;20512;-67
2022/08/12 16:07:24;;;;;;;8.02;4.43;;;;;;;;;;4971895;28;20049;-67
2022/08/12 16:09:59;;;;;;;10.38;7.50;;;;;;;;;;4972896;28;20047;-66
2022/08/12 16:12:38;;;;;;;7.25;4.32;;;;;;;;;;4972453;28;20034;-67
2022/08/12 16:15:06;;;;;;;5.57;3.30;;;;;;;;;;4972376;28;20537;-65
2022/08/12 16:17:35;;;;;;;4.63;3.63;;;;;;;;;;4954744;28;20047;-65
2022/08/12 16:20:26;;;;;;;4.90;3.40;;;;;;;;;;4971670;28;20074;-66
2022/08/12 16:23:02;;;;;;;6.40;2.90;;;;;;;;;;4971643;28;20113;-64
2022/08/12 16:25:49;;;;;;;4.25;3.25;;;;;;;;;;4950657;28;20043;-65
2022/08/12 16:28:32;;;;;;;3.95;3.03;;;;;;;;;;4973322;28;20049;-65
2022/08/12 16:31:00;;;;;;;4.65;3.00;;;;;;;;;;4973142;28;20175;-64
2022/08/12 16:33:33;;;;;;;3.63;3.00;;;;;;;;;;4973492;28;20138;-65
2022/08/12 16:36:23;;;;;;;5.68;3.10;;;;;;;;;;4973235;28;20098;-65
2022/08/12 16:38:51;;;;;;;5.05;2.60;;;;;;;;;;4973512;28;20122;-65
2022/08/12 16:41:18;;;;;;;3.60;2.50;;;;;;;;;;4972683;28;20057;-65
2022/08/12 16:43:47;;;;;;;5.15;2.70;;;;;;;;;;4972934;28;20418;-63
2022/08/12 16:46:15;;;;;;;4.10;2.60;;;;;;;;;;4971927;28;20047;-63
2022/08/12 16:48:59;;;;;;;6.55;2.80;;;;;;;;;;4972829;28;20047;-63
2022/08/12 16:51:40;;;;;;;24.63;22.13;;;;;;;;;;4972957;28;20051;-63
2022/08/12 16:54:13;;;;;;;8.57;6.95;;;;;;;;;;4972807;28;20390;-63
2022/08/12 16:56:43;;;;;;;6.22;3.78;;;;;;;;;;4975450;28;20493;-63
2022/08/12 16:59:25;;;;;;;7.20;5.13;;;;;;;;;;4976626;28;20050;-63
2022/08/12 17:02:13;;;;;;;4.25;2.83;;;;;;;;;;4976715;28;20035;-63
2022/08/12 17:05:00;;;;;;;6.40;3.28;;;;;;;;;;4975788;28;20125;-63
2022/08/12 17:07:31;;;;;;;8.65;3.80;;;;;;;;;;4976152;28;20397;-64
2022/08/12 17:10:07;;;;;;;4.60;2.70;;;;;;;;;;4977326;28;20031;-64
2022/08/12 17:12:35;;;;;;;6.72;4.75;;;;;;;;;;4976724;28;20101;-64
2022/08/12 17:15:06;;;;;;;7.75;3.28;;;;;;;;;;4955860;28;20046;-64